Minatitlan, Mexico

8:27 PM CDT on May 05, 2015 (GMT -0500)
Minatitlan | | Change Station
CLOSE
Current Station
Airport
Location: Minatitlan,
Elevation: 36 ft
Nearby Weather Stations

Elev 36 ft 18.10 °N, 94.58 °W | Updated 46 minutes ago

Scattered Clouds
Scattered Clouds
81 °F
Feels Like 83 °F
N
12
Wind Variable Wind from North

Today
High -- | Low -- °F
--% Chance of Precip.
Yesterday
High -- | Low -- °F
Precip. -- in
6:49 AM 7:40 PM
Waning Gibbous, 96% visible
Pressure 29.78 in
Visibility 10.0 miles
Clouds Scattered Clouds 20000 ft
Heat Index 83 °F
Dew Point 68 °F
Humidity 65%
Rainfall 0.00 in
Snow Depth Not available.
UV 0 out of 12
Pollen Not available.
Air Quality Not available.
Flu Activity Not available.
METAR MMMT 060041Z 36010KT 10SM SCT200 27/20 A2978 RMK 8/001

More Conditions Fewer Conditions

Pressure 29.78 in
Visibility 10.0 miles
Clouds Scattered Clouds 20000 ft
Heat Index 83 °F
Dew Point 68 °F
Humidity 65%
Rainfall 0.00 in
Snow Depth Not available.
UV 0 out of 12
Pollen Not available.
Air Quality Not available.
Flu Activity Not available.
METAR MMMT 060041Z 36010KT 10SM SCT200 27/20 A2978 RMK 8/001

More Conditions Fewer Conditions

10-Day Weather Forecast

Almanac

Astronomy

May. 05, 2015 Rise Set
Actual Time
Civil Twilight
Nautical Twilight
Astronomical Twilight
Moon
Length of Visible Light
Length of Day
Tomorrow will be .
, % of the Moon is Illuminated

Today's Extremes

Country Highs Country Lows

Community

WunderPhotos

Upload Photos

1,819,032 photos uploaded!

WunderBlogs® & News

Nearby

Air Quality

  Air Quality AQ Index Pollutant
Not available.

Snow Depth

Station Depth Elevation

Earthquake Activity

City Distance Mag. Time & Date
Minimum magnitude displayed is 2.5.

Coastal Water Temperatures

Place Temperature

Stations

Nearby Weather Stations

Station Location Temp. Windchill Dew Point Humidity Wind Precip. Elev Updated Type